Time,TemperatureF,DewpointF,PressureIn,WindDirection,WindDirectionDegrees,WindSpeedMPH,WindSpeedGustMPH,Humidity,HourlyPrecipIn,Conditions,Clouds,dailyrainin,SoftwareType,DateUTC
2013-01-12 00:00:00,16.3,11.9,30.06,NW,326,0.0,0.0,82,0.00,,---,0.00,VWS V14.00,2013-01-12 08:00:00,
2013-01-12 00:09:00,15.6,11.2,30.06,NW,326,0.0,0.0,82,0.00,,---,0.00,VWS V14.00,2013-01-12 08:09:00,
2013-01-12 00:19:00,15.0,10.9,30.06,NW,326,0.0,0.0,84,0.00,,---,0.00,VWS V14.00,2013-01-12 08:19:00,
2013-01-12 00:24:00,14.8,10.7,30.06,NW,326,0.0,0.0,84,0.00,,---,0.00,VWS V14.00,2013-01-12 08:24:00,
2013-01-12 00:29:00,14.4,10.3,30.06,NW,326,0.0,0.0,84,0.00,,---,0.00,VWS V14.00,2013-01-12 08:29:00,
2013-01-12 00:34:00,13.9,9.8,30.06,NW,326,0.0,0.0,84,0.00,,---,0.00,VWS V14.00,2013-01-12 08:34:00,
2013-01-12 00:39:00,13.4,9.3,30.06,NW,326,0.0,0.0,84,0.00,,---,0.00,VWS V14.00,2013-01-12 08:39:00,
2013-01-12 00:44:00,12.8,8.8,30.06,NW,326,0.0,0.0,84,0.00,,---,0.00,VWS V14.00,2013-01-12 08:44:00,
2013-01-12 00:54:00,12.2,7.9,30.06,NW,326,0.0,0.0,82,0.00,,---,0.00,VWS V14.00,2013-01-12 08:54:00,
2013-01-12 00:59:00,11.4,6.6,30.06,NW,326,0.0,0.0,80,0.00,,---,0.00,VWS V14.00,2013-01-12 08:59:00,
2013-01-12 01:09:00,10.6,5.8,30.06,NW,326,5.0,6.0,80,0.00,,---,0.00,VWS V14.00,2013-01-12 09:09:00,
2013-01-12 01:14:00,10.8,6.0,30.06,NW,326,5.0,6.0,80,0.00,,---,0.00,VWS V14.00,2013-01-12 09:14:00,
2013-01-12 01:19:00,9.9,4.8,30.06,NW,326,5.0,6.0,80,0.00,,---,0.00,VWS V14.00,2013-01-12 09:19:00,
2013-01-12 01:29:00,9.8,4.2,30.06,NW,326,4.0,7.0,78,0.00,,---,0.00,VWS V14.00,2013-01-12 09:29:00,
2013-01-12 01:34:00,10.5,5.2,30.06,NW,326,4.0,6.0,78,0.00,,---,0.00,VWS V14.00,2013-01-12 09:34:00,
2013-01-12 01:39:00,11.4,6.0,30.06,NW,326,5.0,6.0,78,0.00,,---,0.00,VWS V14.00,2013-01-12 09:39:00,
2013-01-12 01:44:00,12.2,6.5,30.06,NW,326,5.0,6.0,78,0.00,,---,0.00,VWS V14.00,2013-01-12 09:44:00,
2013-01-12 01:49:00,12.8,6.8,30.06,NW,326,5.0,6.0,76,0.00,,---,0.00,VWS V14.00,2013-01-12 09:49:00,
2013-01-12 01:59:00,11.2,4.4,30.06,NW,326,5.0,5.0,74,0.00,,---,0.00,VWS V14.00,2013-01-12 09:59:00,
2013-01-12 02:04:00,7.9,1.5,30.06,NW,326,5.0,6.0,74,0.00,,---,0.00,VWS V14.00,2013-01-12 10:04:00,
2013-01-12 02:14:00,8.6,3.6,30.06,NW,326,5.0,5.0,80,0.00,,---,0.00,VWS V14.00,2013-01-12 10:14:00,
2013-01-12 02:24:00,8.8,3.8,30.06,NW,326,4.0,5.0,80,0.00,,---,0.00,VWS V14.00,2013-01-12 10:24:00,
2013-01-12 02:29:00,8.8,3.8,30.06,NW,326,5.0,6.0,80,0.00,,---,0.00,VWS V14.00,2013-01-12 10:29:00,
2013-01-12 02:34:00,8.8,3.8,30.06,NW,326,5.0,5.0,80,0.00,,---,0.00,VWS V14.00,2013-01-12 10:34:00,
2013-01-12 02:39:00,8.8,3.8,30.06,NW,326,5.0,5.0,80,0.00,,---,0.00,VWS V14.00,2013-01-12 10:39:00,
2013-01-12 02:44:00,8.8,3.8,30.06,NW,326,5.0,5.0,80,0.00,,---,0.00,VWS V14.00,2013-01-12 10:44:00,
2013-01-12 02:49:00,8.8,3.8,30.06,NW,326,5.0,5.0,80,0.00,,---,0.00,VWS V14.00,2013-01-12 10:49:00,
2013-01-12 02:54:00,8.8,3.8,30.06,NW,326,5.0,5.0,80,0.00,,---,0.00,VWS V14.00,2013-01-12 10:54:00,
2013-01-12 02:59:00,8.8,3.8,30.06,NW,326,5.0,5.0,80,0.00,,---,0.00,VWS V14.00,2013-01-12 10:59:00,
2013-01-12 03:04:00,8.8,3.8,30.06,NW,326,5.0,5.0,80,0.00,,---,0.00,VWS V14.00,2013-01-12 11:04:00,
2013-01-12 03:09:00,8.8,3.8,30.06,NW,326,5.0,5.0,80,0.00,,---,0.00,VWS V14.00,2013-01-12 11:09:00,
2013-01-12 03:14:00,8.8,3.8,30.06,NW,326,5.0,5.0,80,0.00,,---,0.00,VWS V14.00,2013-01-12 11:14:00,
2013-01-12 03:19:00,8.8,3.8,30.06,NW,326,5.0,5.0,80,0.00,,---,0.00,VWS V14.00,2013-01-12 11:19:00,
2013-01-12 03:24:00,8.8,3.8,30.06,NW,326,5.0,5.0,80,0.00,,---,0.00,VWS V14.00,2013-01-12 11:24:00,
2013-01-12 03:29:00,8.8,3.8,30.06,NW,326,5.0,5.0,80,0.00,,---,0.00,VWS V14.00,2013-01-12 11:29:00,
2013-01-12 03:34:00,8.8,3.8,30.06,NW,326,5.0,5.0,80,0.00,,---,0.00,VWS V14.00,2013-01-12 11:34:00,
2013-01-12 03:39:00,8.8,3.8,30.06,NW,326,5.0,5.0,80,0.00,,---,0.00,VWS V14.00,2013-01-12 11:39:00,
2013-01-12 03:44:00,8.8,3.8,30.06,NW,326,5.0,5.0,80,0.00,,---,0.00,VWS V14.00,2013-01-12 11:44:00,
2013-01-12 03:49:00,8.8,3.8,30.06,NW,326,5.0,5.0,80,0.00,,---,0.00,VWS V14.00,2013-01-12 11:49:00,
2013-01-12 03:54:00,8.8,3.8,30.06,NW,326,5.0,5.0,80,0.00,,---,0.00,VWS V14.00,2013-01-12 11:54:00,
2013-01-12 03:59:00,8.8,3.8,30.06,NW,326,5.0,5.0,80,0.00,,---,0.00,VWS V14.00,2013-01-12 11:59:00,
2013-01-12 04:04:00,8.8,3.8,30.05,NW,326,5.0,5.0,80,0.00,,---,0.00,VWS V14.00,2013-01-12 12:04:00,
2013-01-12 04:09:00,8.8,3.8,30.05,NW,326,5.0,5.0,80,0.00,,---,0.00,VWS V14.00,2013-01-12 12:09:00,
2013-01-12 04:14:00,8.8,3.8,30.05,NW,326,5.0,5.0,80,0.00,,---,0.00,VWS V14.00,2013-01-12 12:14:00,
2013-01-12 04:19:00,8.8,3.8,30.05,NW,326,5.0,5.0,80,0.00,,---,0.00,VWS V14.00,2013-01-12 12:19:00,
2013-01-12 04:24:00,8.8,3.8,30.06,NW,326,5.0,5.0,80,0.00,,---,0.00,VWS V14.00,2013-01-12 12:24:00,
2013-01-12 04:29:00,8.8,3.8,30.05,NW,326,5.0,5.0,80,0.00,,---,0.00,VWS V14.00,2013-01-12 12:29:00,
2013-01-12 04:34:00,8.8,3.8,30.06,NW,326,5.0,5.0,80,0.00,,---,0.00,VWS V14.00,2013-01-12 12:34:00,
2013-01-12 04:39:00,8.8,3.8,30.05,NW,326,5.0,5.0,80,0.00,,---,0.00,VWS V14.00,2013-01-12 12:39:00,
2013-01-12 04:44:00,8.8,3.8,30.06,NW,326,5.0,5.0,80,0.00,,---,0.00,VWS V14.00,2013-01-12 12:44:00,
2013-01-12 04:49:00,8.8,3.8,30.06,NW,326,5.0,5.0,80,0.00,,---,0.00,VWS V14.00,2013-01-12 12:49:00,
2013-01-12 04:54:00,8.8,3.8,30.06,NW,326,5.0,5.0,80,0.00,,---,0.00,VWS V14.00,2013-01-12 12:54:00,
2013-01-12 04:59:00,8.8,3.8,30.06,NW,326,5.0,5.0,80,0.00,,---,0.00,VWS V14.00,2013-01-12 12:59:00,
2013-01-12 05:04:00,8.8,3.8,30.06,NW,326,5.0,5.0,80,0.00,,---,0.00,VWS V14.00,2013-01-12 13:04:00,
2013-01-12 05:09:00,8.8,3.8,30.06,NW,326,5.0,5.0,80,0.00,,---,0.00,VWS V14.00,2013-01-12 13:09:00,
2013-01-12 05:14:00,8.8,3.8,30.06,NW,326,5.0,5.0,80,0.00,,---,0.00,VWS V14.00,2013-01-12 13:14:00,
2013-01-12 05:19:00,8.8,3.8,30.06,NW,326,5.0,5.0,80,0.00,,---,0.00,VWS V14.00,2013-01-12 13:19:00,
2013-01-12 05:24:00,8.8,3.8,30.06,NW,326,5.0,5.0,80,0.00,,---,0.00,VWS V14.00,2013-01-12 13:24:00,
2013-01-12 05:29:00,8.8,3.8,30.06,NW,326,5.0,5.0,80,0.00,,---,0.00,VWS V14.00,2013-01-12 13:29:00,
2013-01-12 05:34:00,8.8,3.8,30.06,NW,326,5.0,5.0,80,0.00,,---,0.00,VWS V14.00,2013-01-12 13:34:00,
2013-01-12 05:39:00,8.8,3.8,30.06,NW,326,5.0,5.0,80,0.00,,---,0.00,VWS V14.00,2013-01-12 13:39:00,
2013-01-12 05:44:00,8.8,3.8,30.07,NW,326,5.0,5.0,80,0.00,,---,0.00,VWS V14.00,2013-01-12 13:44:00,
2013-01-12 05:49:00,8.8,3.8,30.07,NW,326,5.0,5.0,80,0.00,,---,0.00,VWS V14.00,2013-01-12 13:49:00,
2013-01-12 05:54:00,8.8,3.8,30.07,NW,326,5.0,5.0,80,0.00,,---,0.00,VWS V14.00,2013-01-12 13:54:00,
2013-01-12 05:59:00,8.8,3.8,30.07,NW,326,5.0,5.0,80,0.00,,---,0.00,VWS V14.00,2013-01-12 13:59:00,
2013-01-12 06:04:00,8.8,3.8,30.07,NW,326,5.0,5.0,80,0.00,,---,0.00,VWS V14.00,2013-01-12 14:04:00,
2013-01-12 06:09:00,8.8,3.8,30.07,NW,326,5.0,5.0,80,0.00,,---,0.00,VWS V14.00,2013-01-12 14:09:00,
2013-01-12 06:14:00,8.8,3.8,30.07,NW,326,5.0,5.0,80,0.00,,---,0.00,VWS V14.00,2013-01-12 14:14:00,
2013-01-12 06:19:00,8.8,3.8,30.07,NW,326,5.0,5.0,80,0.00,,---,0.00,VWS V14.00,2013-01-12 14:19:00,
2013-01-12 06:24:00,8.8,3.8,30.07,NW,326,5.0,5.0,80,0.00,,---,0.00,VWS V14.00,2013-01-12 14:24:00,
2013-01-12 06:29:00,8.8,3.8,30.07,NW,326,5.0,5.0,80,0.00,,---,0.00,VWS V14.00,2013-01-12 14:29:00,
2013-01-12 06:34:00,8.8,3.8,30.07,NW,326,5.0,5.0,80,0.00,,---,0.00,VWS V14.00,2013-01-12 14:34:00,
2013-01-12 06:39:00,8.8,3.8,30.08,NW,326,5.0,5.0,80,0.00,,---,0.00,VWS V14.00,2013-01-12 14:39:00,
2013-01-12 06:44:00,8.8,3.8,30.08,NW,326,5.0,5.0,80,0.00,,---,0.00,VWS V14.00,2013-01-12 14:44:00,
2013-01-12 06:49:00,8.8,3.8,30.08,NW,326,5.0,5.0,80,0.00,,---,0.00,VWS V14.00,2013-01-12 14:49:00,
2013-01-12 06:54:00,8.8,3.8,30.08,NW,326,5.0,5.0,80,0.00,,---,0.00,VWS V14.00,2013-01-12 14:54:00,
2013-01-12 06:59:00,8.8,3.8,30.08,NW,326,5.0,5.0,80,0.00,,---,0.00,VWS V14.00,2013-01-12 14:59:00,
2013-01-12 07:04:00,8.8,3.8,30.09,NW,326,5.0,5.0,80,0.00,,---,0.00,VWS V14.00,2013-01-12 15:04:00,
2013-01-12 07:09:00,8.8,3.8,30.09,NW,326,5.0,5.0,80,0.00,,---,0.00,VWS V14.00,2013-01-12 15:09:00,
2013-01-12 07:14:00,8.8,3.8,30.09,NW,326,5.0,5.0,80,0.00,,---,0.00,VWS V14.00,2013-01-12 15:14:00,
2013-01-12 07:19:00,8.8,3.8,30.09,NW,326,5.0,5.0,80,0.00,,---,0.00,VWS V14.00,2013-01-12 15:19:00,
2013-01-12 07:24:00,8.8,3.8,30.09,NW,326,5.0,5.0,80,0.00,,---,0.00,VWS V14.00,2013-01-12 15:24:00,
2013-01-12 07:29:00,8.8,3.8,30.09,NW,326,5.0,5.0,80,0.00,,---,0.00,VWS V14.00,2013-01-12 15:29:00,
2013-01-12 07:34:00,8.8,3.8,30.09,NW,326,5.0,5.0,80,0.00,,---,0.00,VWS V14.00,2013-01-12 15:34:00,
2013-01-12 07:39:00,8.8,3.8,30.09,NW,326,5.0,5.0,80,0.00,,---,0.00,VWS V14.00,2013-01-12 15:39:00,
2013-01-12 07:44:00,8.8,3.8,30.10,NW,326,5.0,5.0,80,0.00,,---,0.00,VWS V14.00,2013-01-12 15:44:00,
2013-01-12 07:49:00,8.8,3.8,30.10,NW,326,5.0,5.0,80,0.00,,---,0.00,VWS V14.00,2013-01-12 15:49:00,
2013-01-12 07:54:00,8.8,3.8,30.10,NW,326,5.0,5.0,80,0.00,,---,0.00,VWS V14.00,2013-01-12 15:54:00,
2013-01-12 07:59:00,8.8,3.8,30.10,NW,326,5.0,5.0,80,0.00,,---,0.00,VWS V14.00,2013-01-12 15:59:00,
2013-01-12 08:04:00,8.8,3.8,30.10,NW,326,5.0,5.0,80,0.00,,---,0.00,VWS V14.00,2013-01-12 16:04:00,
2013-01-12 08:09:00,8.8,3.8,30.10,NW,326,5.0,5.0,80,0.00,,---,0.00,VWS V14.00,2013-01-12 16:09:00,
2013-01-12 08:14:00,8.8,3.8,30.10,NW,326,5.0,5.0,80,0.00,,---,0.00,VWS V14.00,2013-01-12 16:14:00,
2013-01-12 08:19:00,9.9,4.3,30.10,NW,326,3.0,5.0,78,0.00,,---,0.00,VWS V14.00,2013-01-12 16:19:00,
2013-01-12 08:24:00,10.9,5.3,30.10,NW,326,1.0,3.0,78,0.00,,---,0.00,VWS V14.00,2013-01-12 16:24:00,
2013-01-12 08:29:00,11.6,5.7,30.10,NW,326,0.0,2.0,76,0.00,,---,0.00,VWS V14.00,2013-01-12 16:29:00,
2013-01-12 08:34:00,11.4,4.9,30.11,NW,326,0.0,0.0,74,0.00,,---,0.00,VWS V14.00,2013-01-12 16:34:00,
2013-01-12 08:39:00,10.8,4.3,30.11,NW,326,0.0,0.0,74,0.00,,---,0.00,VWS V14.00,2013-01-12 16:39:00,
2013-01-12 08:44:00,10.5,4.0,30.11,NW,326,0.0,0.0,74,0.00,,---,0.00,VWS V14.00,2013-01-12 16:44:00,
2013-01-12 08:49:00,10.9,4.7,30.10,NW,326,0.0,0.0,76,0.00,,---,0.00,VWS V14.00,2013-01-12 16:49:00,
2013-01-12 08:54:00,11.6,5.4,30.10,NW,326,0.0,4.0,76,0.00,,---,0.00,VWS V14.00,2013-01-12 16:54:00,
2013-01-12 08:59:00,12.4,5.8,30.10,NW,326,0.0,0.0,74,0.00,,---,0.00,VWS V14.00,2013-01-12 16:59:00,
2013-01-12 09:04:00,13.4,6.8,30.10,NW,326,0.0,0.0,74,0.00,,---,0.00,VWS V14.00,2013-01-12 17:04:00,
2013-01-12 09:09:00,13.8,6.6,30.10,NW,326,0.0,0.0,72,0.00,,---,0.00,VWS V14.00,2013-01-12 17:09:00,
2013-01-12 09:14:00,14.3,7.1,30.10,NW,326,0.0,0.0,72,0.00,,---,0.00,VWS V14.00,2013-01-12 17:14:00,
2013-01-12 09:19:00,14.3,7.1,30.10,NW,326,0.0,0.0,72,0.00,,---,0.00,VWS V14.00,2013-01-12 17:19:00,
2013-01-12 09:24:00,14.5,7.0,30.10,NW,326,0.0,0.0,72,0.00,,---,0.00,VWS V14.00,2013-01-12 17:24:00,
2013-01-12 09:29:00,14.8,7.0,30.10,NW,326,0.0,0.0,70,0.00,,---,0.00,VWS V14.00,2013-01-12 17:29:00,
2013-01-12 09:34:00,15.2,7.3,30.10,NW,326,0.0,0.0,70,0.00,,---,0.00,VWS V14.00,2013-01-12 17:34:00,
2013-01-12 09:39:00,15.3,7.1,30.10,NW,326,0.0,0.0,70,0.00,,---,0.00,VWS V14.00,2013-01-12 17:39:00,
2013-01-12 09:44:00,14.9,6.7,30.10,NW,326,0.0,0.0,70,0.00,,---,0.00,VWS V14.00,2013-01-12 17:44:00,
2013-01-12 09:49:00,14.6,6.4,30.10,NW,326,0.0,0.0,70,0.00,,---,0.00,VWS V14.00,2013-01-12 17:49:00,
2013-01-12 09:54:00,14.3,6.5,30.10,NW,326,0.0,0.0,70,0.01,,---,0.01,VWS V14.00,2013-01-12 17:54:00,
2013-01-12 09:59:00,14.6,6.8,30.10,NW,326,0.0,0.0,70,0.01,,---,0.01,VWS V14.00,2013-01-12 17:59:00,
2013-01-12 10:04:00,14.8,7.0,30.10,NW,326,0.0,0.0,70,0.01,,---,0.01,VWS V14.00,2013-01-12 18:04:00,
2013-01-12 10:09:00,14.8,6.7,30.10,NW,326,0.0,0.0,70,0.01,,---,0.01,VWS V14.00,2013-01-12 18:09:00,
2013-01-12 10:14:00,14.8,6.3,30.10,NW,326,0.0,0.0,68,0.01,,---,0.01,VWS V14.00,2013-01-12 18:14:00,
2013-01-12 10:19:00,14.7,5.9,30.10,NW,326,0.0,0.0,68,0.01,,---,0.01,VWS V14.00,2013-01-12 18:19:00,
2013-01-12 10:24:00,14.5,5.7,30.10,NW,326,0.0,0.0,68,0.01,,---,0.01,VWS V14.00,2013-01-12 18:24:00,
2013-01-12 10:29:00,14.4,5.9,30.10,NW,326,0.0,0.0,68,0.02,,---,0.02,VWS V14.00,2013-01-12 18:29:00,
2013-01-12 10:34:00,14.5,6.0,30.09,NW,326,2.0,2.0,68,0.02,,---,0.02,VWS V14.00,2013-01-12 18:34:00,
2013-01-12 10:39:00,14.4,5.9,30.09,NW,326,4.0,5.0,68,0.02,,---,0.02,VWS V14.00,2013-01-12 18:39:00,
2013-01-12 10:44:00,14.3,5.8,30.09,NW,326,4.0,6.0,68,0.02,,---,0.02,VWS V14.00,2013-01-12 18:44:00,
2013-01-12 10:49:00,14.3,6.2,30.09,NW,326,3.0,6.0,70,0.02,,---,0.02,VWS V14.00,2013-01-12 18:49:00,
2013-01-12 10:54:00,14.4,6.6,30.09,NW,326,4.0,5.0,70,0.02,,---,0.02,VWS V14.00,2013-01-12 18:54:00,
2013-01-12 10:59:00,14.4,6.3,30.09,NW,326,4.0,5.0,70,0.01,,---,0.02,VWS V14.00,2013-01-12 18:59:00,
2013-01-12 11:04:00,14.5,6.7,30.08,NW,326,2.0,5.0,70,0.01,,---,0.02,VWS V14.00,2013-01-12 19:04:00,
2013-01-12 11:09:00,14.9,7.1,30.08,NW,326,3.0,5.0,70,0.01,,---,0.02,VWS V14.00,2013-01-12 19:09:00,
2013-01-12 11:14:00,15.1,6.9,30.08,NW,326,0.0,5.0,70,0.01,,---,0.02,VWS V14.00,2013-01-12 19:14:00,
2013-01-12 11:19:00,15.7,7.8,30.08,NW,326,2.0,5.0,70,0.01,,---,0.02,VWS V14.00,2013-01-12 19:19:00,
2013-01-12 11:24:00,16.2,8.6,30.08,NW,326,2.0,5.0,72,0.01,,---,0.02,VWS V14.00,2013-01-12 19:24:00,
2013-01-12 11:29:00,16.5,8.6,30.08,NW,326,4.0,5.0,70,0.01,,---,0.02,VWS V14.00,2013-01-12 19:29:00,
2013-01-12 11:34:00,16.7,9.1,30.07,NW,326,4.0,5.0,72,0.00,,---,0.02,VWS V14.00,2013-01-12 19:34:00,
2013-01-12 11:39:00,16.7,9.1,30.07,NW,326,6.0,6.0,72,0.00,,---,0.02,VWS V14.00,2013-01-12 19:39:00,
2013-01-12 11:44:00,16.6,9.0,30.07,NW,326,4.0,7.0,72,0.00,,---,0.02,VWS V14.00,2013-01-12 19:44:00,
2013-01-12 11:49:00,16.9,9.0,30.07,NW,326,4.0,5.0,70,0.00,,---,0.02,VWS V14.00,2013-01-12 19:49:00,
2013-01-12 11:54:00,17.1,9.2,30.07,NW,326,2.0,5.0,70,0.00,,---,0.02,VWS V14.00,2013-01-12 19:54:00,
2013-01-12 11:59:00,17.2,8.6,30.07,NW,326,1.0,5.0,68,0.00,,---,0.02,VWS V14.00,2013-01-12 19:59:00,
2013-01-12 12:04:00,17.3,8.4,30.06,NW,326,2.0,5.0,68,0.00,,---,0.02,VWS V14.00,2013-01-12 20:04:00,
2013-01-12 12:09:00,17.4,8.2,30.06,NW,326,2.0,5.0,66,0.00,,---,0.02,VWS V14.00,2013-01-12 20:09:00,
2013-01-12 12:14:00,17.6,8.4,30.06,NW,326,1.0,5.0,66,0.00,,---,0.02,VWS V14.00,2013-01-12 20:14:00,
2013-01-12 12:19:00,17.8,8.6,30.06,NW,326,2.0,5.0,66,0.00,,---,0.02,VWS V14.00,2013-01-12 20:19:00,
2013-01-12 12:24:00,18.0,8.7,30.06,NW,326,2.0,4.0,66,0.00,,---,0.02,VWS V14.00,2013-01-12 20:24:00,
2013-01-12 12:29:00,18.2,8.6,30.05,NW,326,4.0,5.0,66,0.00,,---,0.02,VWS V14.00,2013-01-12 20:29:00,
2013-01-12 12:35:00,18.4,8.8,30.05,NW,326,4.0,6.0,66,0.01,,---,0.03,VWS V14.00,2013-01-12 20:35:00,
2013-01-12 12:45:00,18.7,8.4,30.05,NW,326,4.0,6.0,64,0.01,,---,0.03,VWS V14.00,2013-01-12 20:45:00,
2013-01-12 12:54:00,18.5,8.2,30.05,NW,326,2.0,5.0,64,0.01,,---,0.03,VWS V14.00,2013-01-12 20:54:00,
2013-01-12 12:59:00,18.5,8.5,30.05,NW,326,4.0,6.0,64,0.01,,---,0.03,VWS V14.00,2013-01-12 20:59:00,
2013-01-12 13:04:00,18.6,8.3,30.04,NW,326,1.0,5.0,64,0.01,,---,0.03,VWS V14.00,2013-01-12 21:04:00,
2013-01-12 13:09:00,18.9,8.6,30.05,NW,326,1.0,4.0,64,0.01,,---,0.03,VWS V14.00,2013-01-12 21:09:00,
2013-01-12 13:14:00,19.4,8.7,30.04,NW,326,0.0,2.0,62,0.01,,---,0.03,VWS V14.00,2013-01-12 21:14:00,
2013-01-12 13:19:00,19.8,9.1,30.04,NW,326,1.0,4.0,62,0.01,,---,0.03,VWS V14.00,2013-01-12 21:19:00,
2013-01-12 13:25:00,19.9,9.2,30.04,NW,326,4.0,5.0,62,0.01,,---,0.03,VWS V14.00,2013-01-12 21:25:00,
2013-01-12 13:35:00,19.9,9.2,30.04,NW,326,2.0,6.0,62,0.01,,---,0.03,VWS V14.00,2013-01-12 21:35:00,
2013-01-12 13:40:00,19.8,9.1,30.04,NW,326,2.0,6.0,62,0.00,,---,0.03,VWS V14.00,2013-01-12 21:40:00,
2013-01-12 13:49:00,20.3,9.6,30.04,NW,326,0.0,0.0,62,0.00,,---,0.03,VWS V14.00,2013-01-12 21:49:00,
2013-01-12 13:54:00,20.8,10.0,30.04,NW,326,0.0,0.0,62,0.00,,---,0.03,VWS V14.00,2013-01-12 21:54:00,
2013-01-12 13:59:00,21.0,10.2,30.04,NW,326,0.0,0.0,62,0.00,,---,0.03,VWS V14.00,2013-01-12 21:59:00,
2013-01-12 14:04:00,21.3,10.1,30.04,NW,326,0.0,0.0,62,0.00,,---,0.03,VWS V14.00,2013-01-12 22:04:00,
2013-01-12 14:09:00,21.3,10.1,30.04,NW,326,0.0,0.0,62,0.00,,---,0.03,VWS V14.00,2013-01-12 22:09:00,
2013-01-12 14:14:00,20.8,10.0,30.04,NW,326,0.0,0.0,62,0.01,,---,0.04,VWS V14.00,2013-01-12 22:14:00,
2013-01-12 14:19:00,21.1,10.3,30.04,NW,326,0.0,0.0,62,0.01,,---,0.04,VWS V14.00,2013-01-12 22:19:00,
2013-01-12 14:25:00,21.5,10.0,30.04,NW,326,0.0,0.0,60,0.01,,---,0.04,VWS V14.00,2013-01-12 22:25:00,
2013-01-12 14:35:00,21.1,9.6,30.04,NW,326,0.0,0.0,60,0.01,,---,0.04,VWS V14.00,2013-01-12 22:35:00,
2013-01-12 14:45:00,20.8,10.0,30.04,NW,326,0.0,0.0,62,0.01,,---,0.04,VWS V14.00,2013-01-12 22:45:00,
2013-01-12 14:54:00,19.7,9.3,30.04,NW,326,0.0,0.0,64,0.01,,---,0.04,VWS V14.00,2013-01-12 22:54:00,
2013-01-12 14:59:00,19.9,9.5,30.04,NW,326,0.0,0.0,64,0.01,,---,0.04,VWS V14.00,2013-01-12 22:59:00,
2013-01-12 15:04:00,20.0,9.3,30.04,NW,326,0.0,0.0,62,0.01,,---,0.04,VWS V14.00,2013-01-12 23:04:00,
2013-01-12 15:10:00,20.1,9.0,30.04,NW,326,0.0,0.0,62,0.01,,---,0.04,VWS V14.00,2013-01-12 23:10:00,
2013-01-12 15:19:00,20.6,9.1,30.04,NW,326,0.0,0.0,60,0.00,,---,0.04,VWS V14.00,2013-01-12 23:19:00,
2013-01-12 15:24:00,20.9,9.0,30.04,NW,326,0.0,0.0,60,0.00,,---,0.04,VWS V14.00,2013-01-12 23:24:00,
2013-01-12 15:29:00,21.3,9.4,30.04,NW,326,0.0,0.0,60,0.00,,---,0.04,VWS V14.00,2013-01-12 23:29:00,
2013-01-12 15:34:00,21.4,8.7,30.04,NW,326,0.0,0.0,58,0.00,,---,0.04,VWS V14.00,2013-01-12 23:34:00,
2013-01-12 15:39:00,21.7,8.6,30.04,NW,326,0.0,0.0,56,0.00,,---,0.04,VWS V14.00,2013-01-12 23:39:00,
2013-01-12 15:45:00,21.8,8.3,30.04,NW,326,0.0,0.0,56,0.00,,---,0.04,VWS V14.00,2013-01-12 23:45:00,
2013-01-12 15:54:00,21.7,7.8,30.04,NW,326,0.0,0.0,54,0.00,,---,0.04,VWS V14.00,2013-01-12 23:54:00,
2013-01-12 15:59:00,21.9,8.0,30.04,NW,326,0.0,0.0,54,0.00,,---,0.04,VWS V14.00,2013-01-12 23:59:00,
2013-01-12 16:04:00,22.0,8.1,30.05,NW,326,0.0,0.0,54,0.00,,---,0.04,VWS V14.00,2013-01-13 00:04:00,
2013-01-12 16:10:00,22.2,8.7,30.05,NW,326,0.0,0.0,56,0.00,,---,0.04,VWS V14.00,2013-01-13 00:10:00,
2013-01-12 16:20:00,21.4,8.7,30.05,NW,326,0.0,0.0,58,0.00,,---,0.04,VWS V14.00,2013-01-13 00:20:00,
2013-01-12 16:25:00,20.9,8.6,30.05,NW,326,0.0,0.0,58,0.00,,---,0.04,VWS V14.00,2013-01-13 00:25:00,
2013-01-12 16:30:00,20.6,8.7,30.05,NW,326,0.0,0.0,60,0.00,,---,0.04,VWS V14.00,2013-01-13 00:30:00,
2013-01-12 16:39:00,19.7,8.6,30.05,NW,326,0.0,0.0,62,0.00,,---,0.04,VWS V14.00,2013-01-13 00:39:00,
2013-01-12 16:44:00,19.3,8.6,30.05,NW,326,0.0,0.0,62,0.00,,---,0.04,VWS V14.00,2013-01-13 00:44:00,
2013-01-12 16:49:00,18.9,8.6,30.05,NW,326,0.0,0.0,64,0.00,,---,0.04,VWS V14.00,2013-01-13 00:49:00,
2013-01-12 16:55:00,18.4,8.4,30.05,NW,326,0.0,0.0,64,0.00,,---,0.04,VWS V14.00,2013-01-13 00:55:00,
2013-01-12 17:04:00,17.5,8.3,30.06,NW,326,0.0,0.0,66,0.00,,---,0.04,VWS V14.00,2013-01-13 01:04:00,
2013-01-12 17:10:00,17.1,7.9,30.06,NW,326,0.0,0.0,66,0.00,,---,0.04,VWS V14.00,2013-01-13 01:10:00,
2013-01-12 17:19:00,16.4,8.2,30.06,NW,326,0.0,0.0,70,0.00,,---,0.04,VWS V14.00,2013-01-13 01:19:00,
2013-01-12 17:24:00,16.1,8.2,30.06,NW,326,0.0,0.0,70,0.00,,---,0.04,VWS V14.00,2013-01-13 01:24:00,
2013-01-12 17:29:00,15.8,8.2,30.06,NW,326,0.0,0.0,72,0.00,,---,0.04,VWS V14.00,2013-01-13 01:29:00,
2013-01-12 17:35:00,15.7,8.4,30.06,NW,326,0.0,0.0,72,0.00,,---,0.04,VWS V14.00,2013-01-13 01:35:00,
2013-01-12 17:44:00,15.4,8.5,30.06,NW,326,0.0,0.0,74,0.00,,---,0.04,VWS V14.00,2013-01-13 01:44:00,
2013-01-12 17:50:00,15.3,8.4,30.07,NW,326,0.0,0.0,74,0.00,,---,0.04,VWS V14.00,2013-01-13 01:50:00,
2013-01-12 18:00:00,15.4,8.5,30.07,NW,326,0.0,0.0,74,0.00,,---,0.04,VWS V14.00,2013-01-13 02:00:00,
2013-01-12 18:09:00,15.5,8.6,30.07,NW,326,0.0,0.0,74,0.00,,---,0.04,VWS V14.00,2013-01-13 02:09:00,
2013-01-12 18:15:00,15.6,8.6,30.07,NW,326,0.0,0.0,74,0.00,,---,0.04,VWS V14.00,2013-01-13 02:15:00,
2013-01-12 18:25:00,15.4,8.5,30.07,NW,326,0.0,0.0,74,0.00,,---,0.04,VWS V14.00,2013-01-13 02:25:00,
2013-01-12 18:34:00,15.6,8.4,30.07,NW,326,0.0,0.0,72,0.00,,---,0.04,VWS V14.00,2013-01-13 02:34:00,
2013-01-12 18:39:00,15.7,8.1,30.07,NW,326,0.0,0.0,72,0.00,,---,0.04,VWS V14.00,2013-01-13 02:39:00,
2013-01-12 18:45:00,15.8,8.2,30.07,NW,326,0.0,0.0,72,0.00,,---,0.04,VWS V14.00,2013-01-13 02:45:00,
2013-01-12 18:50:00,15.8,7.9,30.07,NW,326,0.0,0.0,70,0.00,,---,0.04,VWS V14.00,2013-01-13 02:50:00,
2013-01-12 18:59:00,15.5,7.6,30.07,NW,326,0.0,0.0,70,0.00,,---,0.04,VWS V14.00,2013-01-13 02:59:00,
2013-01-12 19:04:00,15.5,7.6,30.07,NW,326,0.0,0.0,70,0.00,,---,0.04,VWS V14.00,2013-01-13 03:04:00,
2013-01-12 19:09:00,15.5,7.6,30.07,NW,326,0.0,0.0,70,0.00,,---,0.04,VWS V14.00,2013-01-13 03:09:00,
2013-01-12 19:14:00,15.4,7.5,30.07,NW,326,0.0,0.0,70,0.00,,---,0.04,VWS V14.00,2013-01-13 03:14:00,
2013-01-12 19:19:00,15.3,7.4,30.07,NW,326,0.0,0.0,70,0.00,,---,0.04,VWS V14.00,2013-01-13 03:19:00,
2013-01-12 19:24:00,14.7,6.9,30.08,NW,326,0.0,0.0,70,0.00,,---,0.04,VWS V14.00,2013-01-13 03:24:00,
2013-01-12 19:29:00,14.0,6.2,30.08,NW,326,0.0,0.0,70,0.00,,---,0.04,VWS V14.00,2013-01-13 03:29:00,
2013-01-12 19:34:00,13.4,5.9,30.08,NW,326,0.0,0.0,72,0.00,,---,0.04,VWS V14.00,2013-01-13 03:34:00,
2013-01-12 19:39:00,13.3,6.1,30.08,NW,326,0.0,0.0,72,0.00,,---,0.04,VWS V14.00,2013-01-13 03:39:00,
2013-01-12 19:44:00,12.5,5.1,30.07,NW,326,0.0,0.0,72,0.00,,---,0.04,VWS V14.00,2013-01-13 03:44:00,
2013-01-12 19:49:00,11.9,5.1,30.08,NW,326,0.0,0.0,74,0.00,,---,0.04,VWS V14.00,2013-01-13 03:49:00,
2013-01-12 19:54:00,12.3,5.8,30.07,NW,326,0.0,0.0,74,0.00,,---,0.04,VWS V14.00,2013-01-13 03:54:00,
2013-01-12 19:59:00,12.5,5.7,30.08,NW,326,0.0,0.0,74,0.00,,---,0.04,VWS V14.00,2013-01-13 03:59:00,
2013-01-12 20:04:00,12.1,5.3,30.08,NW,326,0.0,0.0,74,0.00,,---,0.04,VWS V14.00,2013-01-13 04:04:00,
2013-01-12 20:09:00,11.6,4.8,30.08,NW,326,0.0,0.0,74,0.00,,---,0.04,VWS V14.00,2013-01-13 04:09:00,
2013-01-12 20:14:00,11.0,4.2,30.08,NW,326,0.0,0.0,74,0.00,,---,0.04,VWS V14.00,2013-01-13 04:14:00,
2013-01-12 20:19:00,10.9,4.4,30.08,NW,326,0.0,0.0,74,0.00,,---,0.04,VWS V14.00,2013-01-13 04:19:00,
2013-01-12 20:24:00,10.6,4.1,30.08,NW,326,0.0,0.0,74,0.00,,---,0.04,VWS V14.00,2013-01-13 04:24:00,
2013-01-12 20:29:00,10.2,3.7,30.09,NW,326,0.0,0.0,74,0.00,,---,0.04,VWS V14.00,2013-01-13 04:29:00,
2013-01-12 20:34:00,9.4,3.0,30.09,NW,326,0.0,0.0,74,0.00,,---,0.04,VWS V14.00,2013-01-13 04:34:00,
2013-01-12 20:39:00,9.9,3.7,30.08,NW,326,0.0,0.0,76,0.00,,---,0.04,VWS V14.00,2013-01-13 04:39:00,
2013-01-12 20:44:00,9.9,3.4,30.08,NW,326,0.0,0.0,74,0.00,,---,0.04,VWS V14.00,2013-01-13 04:44:00,
2013-01-12 20:49:00,9.9,3.7,30.08,NW,326,0.0,0.0,76,0.00,,---,0.04,VWS V14.00,2013-01-13 04:49:00,
2013-01-12 20:54:00,10.0,3.8,30.08,NW,326,0.0,0.0,76,0.00,,---,0.04,VWS V14.00,2013-01-13 04:54:00,
2013-01-12 20:59:00,10.4,4.2,30.08,NW,326,0.0,0.0,76,0.00,,---,0.04,VWS V14.00,2013-01-13 04:59:00,
2013-01-12 21:04:00,11.1,4.9,30.09,NW,326,0.0,0.0,76,0.00,,---,0.04,VWS V14.00,2013-01-13 05:04:00,
2013-01-12 21:09:00,11.5,5.0,30.09,NW,326,0.0,0.0,74,0.00,,---,0.04,VWS V14.00,2013-01-13 05:09:00,
2013-01-12 21:14:00,11.8,5.3,30.09,NW,326,0.0,0.0,74,0.00,,---,0.04,VWS V14.00,2013-01-13 05:14:00,
2013-01-12 21:19:00,12.1,5.3,30.09,NW,326,0.0,0.0,74,0.00,,---,0.04,VWS V14.00,2013-01-13 05:19:00,
2013-01-12 21:24:00,12.1,5.0,30.09,NW,326,0.0,0.0,72,0.00,,---,0.04,VWS V14.00,2013-01-13 05:24:00,
2013-01-12 21:29:00,12.3,5.2,30.09,NW,326,0.0,0.0,72,0.00,,---,0.04,VWS V14.00,2013-01-13 05:29:00,
2013-01-12 21:34:00,12.3,5.2,30.09,NW,326,0.0,0.0,72,0.00,,---,0.04,VWS V14.00,2013-01-13 05:34:00,
2013-01-12 21:39:00,11.3,3.6,30.10,NW,326,0.0,0.0,70,0.00,,---,0.04,VWS V14.00,2013-01-13 05:39:00,
2013-01-12 21:44:00,10.8,3.7,30.10,NW,326,0.0,0.0,72,0.00,,---,0.04,VWS V14.00,2013-01-13 05:44:00,
2013-01-12 21:49:00,10.9,3.8,30.10,NW,326,0.0,0.0,72,0.00,,---,0.04,VWS V14.00,2013-01-13 05:49:00,
2013-01-12 21:54:00,10.2,3.1,30.10,NW,326,0.0,0.0,72,0.00,,---,0.04,VWS V14.00,2013-01-13 05:54:00,
2013-01-12 21:59:00,10.1,3.3,30.10,NW,326,0.0,0.0,74,0.00,,---,0.04,VWS V14.00,2013-01-13 05:59:00,
2013-01-12 22:04:00,10.6,4.1,30.10,NW,326,0.0,0.0,74,0.00,,---,0.04,VWS V14.00,2013-01-13 06:04:00,
2013-01-12 22:09:00,10.4,3.6,30.10,NW,326,0.0,0.0,74,0.00,,---,0.04,VWS V14.00,2013-01-13 06:09:00,
2013-01-12 22:14:00,9.9,3.1,30.10,NW,326,0.0,0.0,74,0.00,,---,0.04,VWS V14.00,2013-01-13 06:14:00,
2013-01-12 22:19:00,9.9,3.4,30.10,NW,326,0.0,0.0,74,0.00,,---,0.04,VWS V14.00,2013-01-13 06:19:00,
2013-01-12 22:24:00,9.9,3.4,30.10,NW,326,0.0,0.0,74,0.00,,---,0.04,VWS V14.00,2013-01-13 06:24:00,
2013-01-12 22:29:00,9.9,3.4,30.09,NW,326,0.0,0.0,74,0.00,,---,0.04,VWS V14.00,2013-01-13 06:29:00,
2013-01-12 22:34:00,9.5,3.0,30.09,NW,326,0.0,0.0,74,0.00,,---,0.04,VWS V14.00,2013-01-13 06:34:00,
2013-01-12 22:39:00,9.2,2.8,30.09,NW,326,0.0,0.0,74,0.00,,---,0.04,VWS V14.00,2013-01-13 06:39:00,
2013-01-12 22:44:00,8.5,2.1,30.10,NW,326,0.0,0.0,74,0.00,,---,0.04,VWS V14.00,2013-01-13 06:44:00,
2013-01-12 22:49:00,7.7,1.3,30.10,NW,326,0.0,0.0,74,0.00,,---,0.04,VWS V14.00,2013-01-13 06:49:00,
2013-01-12 22:54:00,7.3,1.2,30.10,NW,326,0.0,0.0,76,0.00,,---,0.04,VWS V14.00,2013-01-13 06:54:00,
2013-01-12 22:59:00,7.0,0.9,30.10,NW,326,0.0,0.0,76,0.00,,---,0.04,VWS V14.00,2013-01-13 06:59:00,
2013-01-12 23:04:00,6.7,0.6,30.10,NW,326,0.0,0.0,76,0.00,,---,0.04,VWS V14.00,2013-01-13 07:04:00,
2013-01-12 23:09:00,6.8,1.0,30.10,NW,326,0.0,0.0,76,0.00,,---,0.04,VWS V14.00,2013-01-13 07:09:00,
2013-01-12 23:14:00,7.3,1.5,30.10,NW,326,0.0,0.0,76,0.00,,---,0.04,VWS V14.00,2013-01-13 07:14:00,
2013-01-12 23:19:00,7.4,1.6,30.10,NW,326,0.0,0.0,76,0.00,,---,0.04,VWS V14.00,2013-01-13 07:19:00,
2013-01-12 23:24:00,7.0,1.2,30.10,NW,326,0.0,0.0,76,0.00,,---,0.04,VWS V14.00,2013-01-13 07:24:00,
2013-01-12 23:29:00,6.6,0.8,30.10,NW,326,0.0,0.0,76,0.00,,---,0.04,VWS V14.00,2013-01-13 07:29:00,
2013-01-12 23:34:00,6.3,0.5,30.10,NW,326,0.0,0.0,76,0.00,,---,0.04,VWS V14.00,2013-01-13 07:34:00,
2013-01-12 23:39:00,7.1,1.6,30.10,NW,326,0.0,0.0,78,0.00,,---,0.04,VWS V14.00,2013-01-13 07:39:00,
2013-01-12 23:44:00,7.4,1.6,30.10,NW,326,0.0,0.0,76,0.00,,---,0.04,VWS V14.00,2013-01-13 07:44:00,
2013-01-12 23:49:00,7.8,2.0,30.10,NW,326,0.0,0.0,76,0.00,,---,0.04,VWS V14.00,2013-01-13 07:49:00,
2013-01-12 23:54:00,7.3,1.2,30.10,NW,326,0.0,0.0,76,0.00,,---,0.04,VWS V14.00,2013-01-13 07:54:00,